createdAt,value
2017-08-15T00:00:12.573Z,90.90
2017-08-15T00:02:38.518Z,90.90
2017-08-15T00:05:04.487Z,90.70
2017-08-15T00:07:30.427Z,90.80
2017-08-15T00:09:57.095Z,90.70
2017-08-15T00:12:23.698Z,90.70
2017-08-15T00:14:49.648Z,90.80
2017-08-15T00:17:16.347Z,91.20
2017-08-15T00:19:42.294Z,91.20
2017-08-15T00:22:08.229Z,91.00
2017-08-15T00:24:34.171Z,91.10
2017-08-15T00:27:00.854Z,91.00
2017-08-15T00:29:26.817Z,91.00
2017-08-15T00:31:52.805Z,91.40
2017-08-15T00:34:18.759Z,91.90
2017-08-15T00:36:44.706Z,92.00
2017-08-15T00:39:10.657Z,91.80
2017-08-15T00:41:37.344Z,91.80
2017-08-15T00:44:03.330Z,91.80
2017-08-15T00:46:29.278Z,91.90
2017-08-15T00:48:55.219Z,91.80
2017-08-15T00:51:21.181Z,91.80
2017-08-15T00:53:47.146Z,92.00
2017-08-15T00:56:13.125Z,91.90
2017-08-15T00:58:39.097Z,91.80
2017-08-15T01:01:05.810Z,92.10
2017-08-15T01:03:31.785Z,92.10
2017-08-15T01:05:58.474Z,92.50
2017-08-15T01:08:24.422Z,92.40
2017-08-15T01:10:50.389Z,92.70
2017-08-15T01:13:16.339Z,93.00
2017-08-15T01:15:42.304Z,93.00
2017-08-15T01:18:08.246Z,93.10
2017-08-15T01:20:34.934Z,93.00
2017-08-15T01:23:00.906Z,93.00
2017-08-15T01:25:27.105Z,92.80
2017-08-15T01:27:53.046Z,93.00
2017-08-15T01:30:19.012Z,93.30
2017-08-15T01:32:44.970Z,93.30
2017-08-15T01:35:10.917Z,93.10
2017-08-15T01:37:48.979Z,93.00
2017-08-15T01:40:14.922Z,92.70
2017-08-15T01:42:40.876Z,92.80
2017-08-15T01:45:06.816Z,92.90
2017-08-15T01:47:32.766Z,93.00
2017-08-15T01:49:58.693Z,93.00
2017-08-15T01:52:24.669Z,93.20
2017-08-15T01:54:50.641Z,93.30
2017-08-15T01:57:16.602Z,93.60
2017-08-15T01:59:43.284Z,93.80
2017-08-15T02:02:09.209Z,93.70
2017-08-15T02:04:35.158Z,94.00
2017-08-15T02:07:01.155Z,94.10
2017-08-15T02:09:27.126Z,94.50
2017-08-15T02:11:53.106Z,94.60
2017-08-15T02:14:19.057Z,94.20
2017-08-15T02:16:44.987Z,94.20
2017-08-15T02:19:10.932Z,94.30
2017-08-15T02:21:36.867Z,94.60
2017-08-15T02:24:02.843Z,94.70
2017-08-15T02:26:28.791Z,94.50
2017-08-15T02:28:54.746Z,94.80
2017-08-15T02:31:20.716Z,94.60
2017-08-15T02:33:46.682Z,94.50
2017-08-15T02:36:12.628Z,94.30
2017-08-15T02:38:38.575Z,94.20
2017-08-15T02:41:04.518Z,94.10
2017-08-15T02:43:31.209Z,94.90
2017-08-15T02:45:57.261Z,94.90
2017-08-15T02:48:23.215Z,94.90
2017-08-15T02:50:49.924Z,95.10
2017-08-15T02:53:15.882Z,95.10
2017-08-15T02:55:42.579Z,95.50
2017-08-15T02:58:08.544Z,95.50
2017-08-15T03:00:34.481Z,95.80
2017-08-15T03:03:01.156Z,95.20
2017-08-15T03:05:27.101Z,95.20
2017-08-15T03:07:53.051Z,95.00
2017-08-15T03:10:19.012Z,95.00
2017-08-15T03:12:44.962Z,95.20
2017-08-15T03:15:10.902Z,95.50
2017-08-15T03:20:30.761Z,95.90
2017-08-15T03:22:57.455Z,95.70
2017-08-15T03:25:23.407Z,95.60
2017-08-15T03:27:50.352Z,95.30
2017-08-15T03:30:16.329Z,95.10
2017-08-15T03:32:42.289Z,94.90
2017-08-15T03:35:08.270Z,94.70
2017-08-15T03:37:34.194Z,94.50
2017-08-15T03:40:00.886Z,95.10
2017-08-15T03:42:26.819Z,95.10
2017-08-15T03:44:52.797Z,95.00
2017-08-15T03:47:19.478Z,95.10
2017-08-15T03:49:45.421Z,95.00
2017-08-15T03:52:11.366Z,95.50
2017-08-15T03:54:37.308Z,95.60
2017-08-15T03:57:03.988Z,95.80
2017-08-15T03:59:29.913Z,95.80
2017-08-15T04:01:55.829Z,95.40
2017-08-15T04:04:21.754Z,95.20
2017-08-15T04:06:48.410Z,95.60
2017-08-15T04:09:14.346Z,95.30
2017-08-15T04:11:40.334Z,95.80
2017-08-15T04:14:06.291Z,95.80
2017-08-15T04:16:32.229Z,96.20
2017-08-15T04:18:58.212Z,96.40
2017-08-15T04:21:24.160Z,96.90
2017-08-15T04:23:50.836Z,96.40
2017-08-15T04:26:16.772Z,96.40
2017-08-15T04:28:42.710Z,96.90
2017-08-15T04:31:08.657Z,96.40
2017-08-15T04:33:34.600Z,96.50
2017-08-15T04:36:00.538Z,96.50
2017-08-15T04:38:27.222Z,95.50
2017-08-15T04:43:51.264Z,95.20
2017-08-15T04:46:17.229Z,95.20
2017-08-15T04:48:43.150Z,95.40
2017-08-15T04:51:09.104Z,95.30
2017-08-15T04:53:35.042Z,95.10
2017-08-15T04:56:00.998Z,95.20
2017-08-15T04:58:27.666Z,95.40
2017-08-15T05:00:53.606Z,95.40
2017-08-15T05:03:19.627Z,95.50
2017-08-15T05:05:45.574Z,95.40
2017-08-15T05:08:11.506Z,95.50
2017-08-15T05:10:37.457Z,95.30
2017-08-15T05:13:03.409Z,95.60
2017-08-15T05:15:30.146Z,95.50
2017-08-15T05:17:56.069Z,95.50
2017-08-15T05:20:22.008Z,95.50
2017-08-15T05:22:48.698Z,95.30
2017-08-15T05:25:14.677Z,95.40
2017-08-15T05:27:40.596Z,95.40
2017-08-15T05:30:06.564Z,95.20
2017-08-15T05:32:32.514Z,95.30
2017-08-15T05:34:58.459Z,94.90
2017-08-15T05:37:24.398Z,94.80
2017-08-15T05:39:50.358Z,94.70
2017-08-15T05:42:17.034Z,94.40
2017-08-15T05:44:42.991Z,94.30
2017-08-15T05:47:08.949Z,94.20
2017-08-15T05:49:35.647Z,94.60
2017-08-15T05:52:01.590Z,94.50
2017-08-15T05:54:27.515Z,94.40
2017-08-15T05:56:53.461Z,94.60
2017-08-15T05:59:19.501Z,94.90
2017-08-15T06:01:45.449Z,95.10
2017-08-15T06:04:12.149Z,94.00
2017-08-15T06:06:38.104Z,93.90
2017-08-15T06:09:04.779Z,93.60
2017-08-15T06:11:30.717Z,93.50
2017-08-15T06:13:56.654Z,93.30
2017-08-15T06:16:24.713Z,93.00
2017-08-15T06:18:50.637Z,92.80
2017-08-15T06:21:16.581Z,92.80
2017-08-15T06:23:42.486Z,92.60
2017-08-15T06:26:08.418Z,92.40
2017-08-15T06:28:34.345Z,92.30
2017-08-15T06:31:06.735Z,92.30
2017-08-15T06:33:32.702Z,92.30
2017-08-15T06:35:58.638Z,92.40
2017-08-15T06:38:35.446Z,92.50
2017-08-15T06:44:09.272Z,92.50
2017-08-15T06:46:35.246Z,92.70
2017-08-15T06:49:01.154Z,93.00
2017-08-15T06:51:27.094Z,92.90
2017-08-15T06:54:12.463Z,92.70
2017-08-15T06:56:38.449Z,92.80
2017-08-15T06:59:04.426Z,92.30
2017-08-15T07:01:30.374Z,91.80
2017-08-15T07:03:57.044Z,91.80
2017-08-15T07:06:22.997Z,91.60
2017-08-15T07:08:48.950Z,91.30
2017-08-15T07:11:14.894Z,91.10
2017-08-15T07:13:41.598Z,90.20
2017-08-15T07:16:07.543Z,90.10
2017-08-15T07:18:33.481Z,90.10
2017-08-15T07:20:59.440Z,89.10
2017-08-15T07:23:26.650Z,88.40
2017-08-15T07:25:53.105Z,88.40
2017-08-15T07:28:19.051Z,87.00
2017-08-15T07:30:45.723Z,87.60
2017-08-15T07:33:11.647Z,87.60
2017-08-15T07:35:45.375Z,87.30
2017-08-15T07:38:11.341Z,85.00
2017-08-15T07:40:37.274Z,85.70
2017-08-15T07:43:03.961Z,86.10
2017-08-15T07:45:29.894Z,85.20
2017-08-15T07:47:55.822Z,85.90
2017-08-15T07:50:22.859Z,86.10
2017-08-15T07:52:48.798Z,86.50
2017-08-15T07:55:14.802Z,85.90
2017-08-15T07:57:41.473Z,84.70
2017-08-15T08:00:07.465Z,84.60
2017-08-15T08:02:34.166Z,84.70
2017-08-15T08:05:00.177Z,84.60
2017-08-15T08:07:26.101Z,83.80
2017-08-15T08:09:52.102Z,83.00
2017-08-15T08:12:18.045Z,82.70
2017-08-15T08:14:43.982Z,82.40
2017-08-15T08:17:09.907Z,82.60
2017-08-15T08:19:35.835Z,82.60
2017-08-15T08:22:01.761Z,81.90
2017-08-15T08:24:27.761Z,82.90
2017-08-15T08:26:54.438Z,82.90
2017-08-15T08:29:23.619Z,82.90
2017-08-15T08:31:57.839Z,83.30
2017-08-15T08:34:23.785Z,83.60
2017-08-15T08:36:50.790Z,83.00
2017-08-15T08:39:17.466Z,84.50
2017-08-15T08:59:32.820Z,90.20
2017-08-15T09:03:07.856Z,90.00
2017-08-15T09:05:52.056Z,91.20
2017-08-15T09:08:18.002Z,91.20
2017-08-15T09:10:43.961Z,91.50
2017-08-15T09:13:11.340Z,90.10
2017-08-15T09:15:37.312Z,90.10
2017-08-15T09:18:03.281Z,90.30
2017-08-15T09:22:26.313Z,86.20
2017-08-15T09:24:52.294Z,85.20
2017-08-15T09:27:18.282Z,84.30
2017-08-15T09:30:15.848Z,83.90
2017-08-15T09:33:17.097Z,81.90
2017-08-15T09:35:43.068Z,86.50
2017-08-15T09:38:11.137Z,85.60
2017-08-15T09:40:37.093Z,86.10
2017-08-15T09:43:03.010Z,89.40
2017-08-15T09:45:28.969Z,86.80
2017-08-15T09:47:55.044Z,88.90
2017-08-15T09:50:20.989Z,88.70
2017-08-15T09:52:46.928Z,89.60
2017-08-15T09:55:12.867Z,85.30
2017-08-15T09:57:38.823Z,87.40
2017-08-15T10:00:05.536Z,84.30
2017-08-15T10:02:31.504Z,84.30
2017-08-15T10:04:58.193Z,85.10
2017-08-15T10:07:24.138Z,84.90
2017-08-15T10:09:50.098Z,86.30
2017-08-15T10:12:17.085Z,81.90
2017-08-15T10:14:43.034Z,82.90
2017-08-15T10:17:08.984Z,79.60
2017-08-15T10:19:34.950Z,81.80
2017-08-15T10:22:01.653Z,84.60
2017-08-15T10:24:27.637Z,84.50
2017-08-15T10:26:53.602Z,80.40
2017-08-15T10:29:19.543Z,81.30
2017-08-15T10:31:45.523Z,77.90
2017-08-15T10:34:11.463Z,78.20
2017-08-15T10:36:37.386Z,76.40
2017-08-15T10:39:03.354Z,77.00
2017-08-15T10:41:29.288Z,78.50
2017-08-15T10:43:55.218Z,73.70
2017-08-15T10:46:21.177Z,78.20
2017-08-15T10:48:48.933Z,72.60
2017-08-15T10:51:15.601Z,73.40
2017-08-15T10:53:41.545Z,72.50
2017-08-15T10:56:07.476Z,68.70
2017-08-15T10:58:33.427Z,65.00
2017-08-15T11:00:59.356Z,66.20
2017-08-15T11:03:25.353Z,63.70
2017-08-15T11:05:52.357Z,58.60
2017-08-15T11:08:18.286Z,59.90
2017-08-15T11:10:44.229Z,54.60
2017-08-15T11:13:10.897Z,54.90
2017-08-15T11:15:36.842Z,54.70
2017-08-15T11:18:02.770Z,52.10
2017-08-15T11:20:28.741Z,51.50
2017-08-15T11:22:54.681Z,50.40
2017-08-15T11:25:21.373Z,49.80
2017-08-15T11:27:47.339Z,49.80
2017-08-15T11:30:14.021Z,45.10
2017-08-15T11:32:40.027Z,45.10
2017-08-15T11:35:06.726Z,47.10
2017-08-15T11:37:32.673Z,47.10
2017-08-15T11:39:58.628Z,49.00
2017-08-15T11:42:25.297Z,46.40
2017-08-15T11:44:51.256Z,46.50
2017-08-15T11:47:17.177Z,48.70
2017-08-15T11:49:43.123Z,51.90
2017-08-15T11:52:09.066Z,51.30
2017-08-15T11:54:35.760Z,50.60
2017-08-15T11:57:01.691Z,49.80
2017-08-15T11:59:27.674Z,50.70
2017-08-15T12:01:54.360Z,49.80
2017-08-15T12:04:20.317Z,49.70
2017-08-15T12:06:46.286Z,51.60
2017-08-15T12:09:12.945Z,54.40
2017-08-15T12:11:38.903Z,54.50
2017-08-15T12:14:04.823Z,56.10
2017-08-15T12:16:30.777Z,58.90
2017-08-15T12:18:56.710Z,61.40
2017-08-15T12:21:22.667Z,63.30
2017-08-15T12:23:49.414Z,68.20
2017-08-15T12:26:16.097Z,70.10
2017-08-15T12:28:42.025Z,70.20
2017-08-15T12:31:07.980Z,71.70
2017-08-15T12:33:33.909Z,72.70
2017-08-15T12:35:59.846Z,74.00
2017-08-15T12:38:26.523Z,99.90
2017-08-15T12:40:52.664Z,99.90
2017-08-15T12:43:18.644Z,99.90
2017-08-15T12:45:44.676Z,99.90
2017-08-15T12:48:11.614Z,99.90
2017-08-15T12:50:37.576Z,99.90
2017-08-15T12:53:04.270Z,99.90
2017-08-15T12:55:30.231Z,99.90
2017-08-15T12:57:56.230Z,99.90
